Time;durP1;ratioP1;P1;durP2;ratioP2;P2;SDS_P1;SDS_P2;PMS_P1;PMS_P2;Temp;Humidity;BMP_temperature;BMP_pressure;BME280_temperature;BME280_humidity;BME280_pressure;Samples;Min_cycle;Max_cycle;Signal;HPM_P1;HPM_P2
2021/06/28 00:00:10;;;;;;;4.53;3.40;;;;;;;;;;410911;23;69002;-69
2021/06/28 00:00:24;;;;;;;4.43;3.30;;;;;;;;;;408184;23;137807;-72
2021/06/28 00:00:36;;;;;;;4.10;3.38;;;;;;;;;;410103;23;93205;-70
2021/06/28 00:00:48;;;;;;;4.68;3.47;;;;;;;;;;412112;23;46121;-75
2021/06/28 00:01:02;;;;;;;4.97;3.25;;;;;;;;;;410956;23;69621;-74
2021/06/28 00:01:16;;;;;;;4.50;3.30;;;;;;;;;;410041;23;92011;-75
2021/06/28 00:01:28;;;;;;;4.22;3.60;;;;;;;;;;410926;23;70119;-76
2021/06/28 00:01:41;;;;;;;4.28;3.60;;;;;;;;;;410964;23;70340;-71
2021/06/28 00:01:53;;;;;;;4.82;3.53;;;;;;;;;;411068;23;70273;-73
2021/06/28 00:02:07;;;;;;;5.30;3.44;;;;;;;;;;413088;23;45109;-73
2021/06/28 00:02:20;;;;;;;4.45;3.30;;;;;;;;;;411014;23;68653;-72
2021/06/28 00:02:32;;;;;;;4.40;3.30;;;;;;;;;;411068;23;68929;-74
2021/06/28 00:02:45;;;;;;;4.95;3.38;;;;;;;;;;411078;23;70294;-76
2021/06/28 00:02:58;;;;;;;5.22;3.50;;;;;;;;;;412129;23;46793;-69
2021/06/28 00:03:11;;;;;;;5.03;3.50;;;;;;;;;;409878;23;93284;-72
2021/06/28 00:03:23;;;;;;;4.55;3.40;;;;;;;;;;412019;23;46433;-76
2021/06/28 00:03:37;;;;;;;4.70;3.28;;;;;;;;;;410965;23;68971;-70
2021/06/28 00:03:49;;;;;;;4.97;3.25;;;;;;;;;;410956;23;70433;-75
2021/06/28 00:04:02;;;;;;;4.90;3.20;;;;;;;;;;411904;23;45876;-73
2021/06/28 00:04:14;;;;;;;4.82;3.42;;;;;;;;;;411095;23;70123;-74
2021/06/28 00:04:26;;;;;;;4.78;3.47;;;;;;;;;;412023;23;46440;-75
2021/06/28 00:04:38;;;;;;;4.80;3.30;;;;;;;;;;411289;23;69137;-70
2021/06/28 00:04:51;;;;;;;4.25;3.22;;;;;;;;;;413887;23;45951;-75
2021/06/28 00:05:07;;;;;;;3.90;3.00;;;;;;;;;;413899;23;46649;-70
2021/06/28 00:05:19;;;;;;;4.18;3.13;;;;;;;;;;410263;23;136984;-73
2021/06/28 00:05:32;;;;;;;4.03;3.35;;;;;;;;;;414253;23;45677;-75
2021/06/28 00:05:46;;;;;;;4.00;3.60;;;;;;;;;;413209;23;69113;-72
2021/06/28 00:05:58;;;;;;;4.00;3.40;;;;;;;;;;411425;23;91612;-72
2021/06/28 00:06:14;;;;;;;4.38;3.35;;;;;;;;;;411646;23;46779;-76
2021/06/28 00:06:26;;;;;;;4.53;3.30;;;;;;;;;;407968;23;137743;-70
2021/06/28 00:06:38;;;;;;;4.13;3.10;;;;;;;;;;411825;23;45624;-75
2021/06/28 00:06:51;;;;;;;3.55;3.00;;;;;;;;;;411645;23;47170;-74
2021/06/28 00:07:03;;;;;;;4.80;3.08;;;;;;;;;;410969;23;67978;-75
2021/06/28 00:07:15;;;;;;;5.20;3.33;;;;;;;;;;411787;23;46678;-75
2021/06/28 00:07:27;;;;;;;5.75;3.50;;;;;;;;;;411811;23;47171;-71
2021/06/28 00:07:40;;;;;;;4.82;3.42;;;;;;;;;;411207;23;67813;-69
2021/06/28 00:07:53;;;;;;;4.40;3.30;;;;;;;;;;410933;23;68827;-76
2021/06/28 00:08:05;;;;;;;5.15;3.58;;;;;;;;;;413854;23;46652;-75
2021/06/28 00:08:17;;;;;;;5.18;3.50;;;;;;;;;;413671;23;45295;-76
2021/06/28 00:08:30;;;;;;;4.95;3.35;;;;;;;;;;413029;23;68861;-72
2021/06/28 00:08:43;;;;;;;4.32;3.30;;;;;;;;;;413609;23;46889;-71
2021/06/28 00:08:56;;;;;;;3.75;3.30;;;;;;;;;;413270;23;70171;-77
2021/06/28 00:09:08;;;;;;;4.88;3.75;;;;;;;;;;412006;23;91123;-75
2021/06/28 00:09:21;;;;;;;5.07;3.63;;;;;;;;;;413941;23;46039;-74
2021/06/28 00:09:33;;;;;;;4.28;3.40;;;;;;;;;;413798;23;46097;-75
2021/06/28 00:09:45;;;;;;;4.40;3.40;;;;;;;;;;413844;23;45989;-75
2021/06/28 00:09:57;;;;;;;3.88;3.47;;;;;;;;;;413661;23;46081;-72
2021/06/28 00:10:11;;;;;;;4.43;3.40;;;;;;;;;;414009;23;44949;-71
2021/06/28 00:10:24;;;;;;;4.63;3.42;;;;;;;;;;411961;23;92600;-74
2021/06/28 00:10:37;;;;;;;4.54;3.50;;;;;;;;;;411762;23;92080;-72
2021/06/28 00:10:50;;;;;;;4.03;3.50;;;;;;;;;;412799;23;70325;-71
2021/06/28 00:11:02;;;;;;;3.92;3.38;;;;;;;;;;413900;23;45924;-71
2021/06/28 00:11:15;;;;;;;3.72;3.38;;;;;;;;;;412856;23;67719;-73
2021/06/28 00:11:28;;;;;;;3.95;3.55;;;;;;;;;;411077;23;69983;-76
2021/06/28 00:11:40;;;;;;;4.20;3.70;;;;;;;;;;411862;23;47313;-70
2021/06/28 00:11:52;;;;;;;5.28;3.60;;;;;;;;;;410046;24;43329;-70
2021/06/28 00:12:05;;;;;;;5.50;3.80;;;;;;;;;;409048;24;69935;-72
2021/06/28 00:12:17;;;;;;;4.78;3.65;;;;;;;;;;410113;24;45469;-75
2021/06/28 00:12:29;;;;;;;3.82;3.40;;;;;;;;;;409995;24;45340;-76
2021/06/28 00:12:42;;;;;;;4.38;3.50;;;;;;;;;;409934;24;45712;-73
2021/06/28 00:12:55;;;;;;;4.90;3.72;;;;;;;;;;411518;23;45941;-71
2021/06/28 00:13:07;;;;;;;4.93;3.67;;;;;;;;;;410065;23;91859;-73
2021/06/28 00:13:20;;;;;;;4.97;3.42;;;;;;;;;;411811;23;46113;-71
2021/06/28 00:13:33;;;;;;;4.07;3.10;;;;;;;;;;412576;23;68584;-73
2021/06/28 00:13:45;;;;;;;4.97;3.45;;;;;;;;;;412881;23;69055;-70
2021/06/28 00:13:57;;;;;;;5.00;3.53;;;;;;;;;;413476;23;45655;-71
2021/06/28 00:14:10;;;;;;;4.90;3.40;;;;;;;;;;411908;23;46779;-74
2021/06/28 00:14:22;;;;;;;5.15;3.30;;;;;;;;;;410992;23;68841;-77
2021/06/28 00:14:34;;;;;;;5.30;3.35;;;;;;;;;;411941;23;46723;-70
2021/06/28 00:14:46;;;;;;;5.18;3.47;;;;;;;;;;412008;23;45826;-70
2021/06/28 00:14:59;;;;;;;4.68;3.38;;;;;;;;;;411037;23;68903;-74
2021/06/28 00:15:17;;;;;;;4.38;3.33;;;;;;;;;;411957;23;46173;-70
2021/06/28 00:15:31;;;;;;;6.57;3.47;;;;;;;;;;408055;23;138331;-71
2021/06/28 00:15:44;;;;;;;6.65;3.83;;;;;;;;;;409896;23;93062;-77
2021/06/28 00:15:57;;;;;;;5.32;3.90;;;;;;;;;;411531;23;69881;-75
2021/06/28 00:16:10;;;;;;;5.97;4.00;;;;;;;;;;414175;23;45662;-70
2021/06/28 00:16:25;;;;;;;5.55;3.78;;;;;;;;;;413108;23;68609;-73
2021/06/28 00:16:38;;;;;;;5.13;3.60;;;;;;;;;;410241;23;137823;-72
2021/06/28 00:16:50;;;;;;;4.45;3.60;;;;;;;;;;413192;23;68943;-70
2021/06/28 00:17:03;;;;;;;4.78;3.72;;;;;;;;;;414022;23;44861;-73
2021/06/28 00:17:15;;;;;;;4.72;3.50;;;;;;;;;;413007;23;70331;-76
2021/06/28 00:17:27;;;;;;;5.13;3.53;;;;;;;;;;414025;23;46221;-76
2021/06/28 00:17:40;;;;;;;6.24;3.58;;;;;;;;;;414024;23;46728;-71
2021/06/28 00:17:53;;;;;;;5.75;3.42;;;;;;;;;;413044;23;70226;-71
2021/06/28 00:18:10;;;;;;;4.15;3.40;;;;;;;;;;409918;23;138679;-74
2021/06/28 00:18:22;;;;;;;4.53;3.50;;;;;;;;;;412812;23;70044;-71
2021/06/28 00:18:35;;;;;;;4.40;3.60;;;;;;;;;;412826;23;69909;-70
2021/06/28 00:18:47;;;;;;;4.32;3.72;;;;;;;;;;413750;23;47283;-74
2021/06/28 00:19:02;;;;;;;6.05;3.88;;;;;;;;;;413767;23;46001;-69
2021/06/28 00:19:14;;;;;;;6.00;3.60;;;;;;;;;;408040;23;138721;-76
2021/06/28 00:19:27;;;;;;;4.82;3.45;;;;;;;;;;411821;23;46004;-69
2021/06/28 00:19:39;;;;;;;4.82;3.47;;;;;;;;;;411833;23;45482;-73
2021/06/28 00:19:51;;;;;;;6.00;3.53;;;;;;;;;;410904;23;67782;-75
2021/06/28 00:20:05;;;;;;;6.85;3.63;;;;;;;;;;412402;23;45938;-74
2021/06/28 00:20:18;;;;;;;5.50;3.47;;;;;;;;;;412050;23;91505;-72
2021/06/28 00:20:31;;;;;;;3.58;3.22;;;;;;;;;;412616;23;68967;-74
2021/06/28 00:20:43;;;;;;;3.72;3.20;;;;;;;;;;412930;23;70137;-71
2021/06/28 00:20:56;;;;;;;4.55;3.40;;;;;;;;;;413750;23;45540;-75
2021/06/28 00:21:09;;;;;;;5.03;3.58;;;;;;;;;;413000;23;68898;-71
2021/06/28 00:21:21;;;;;;;5.15;3.72;;;;;;;;;;412976;23;69990;-74
2021/06/28 00:21:33;;;;;;;4.93;3.78;;;;;;;;;;414074;23;44821;-76
2021/06/28 00:21:46;;;;;;;4.30;3.63;;;;;;;;;;412788;23;68349;-75
2021/06/28 00:21:58;;;;;;;3.92;3.45;;;;;;;;;;413841;23;47282;-72
2021/06/28 00:22:10;;;;;;;4.32;3.50;;;;;;;;;;413815;23;45966;-71
2021/06/28 00:22:23;;;;;;;4.85;3.70;;;;;;;;;;410949;23;66329;-73
2021/06/28 00:22:36;;;;;;;5.35;3.95;;;;;;;;;;411929;23;45822;-70
2021/06/28 00:22:48;;;;;;;4.95;3.92;;;;;;;;;;411063;23;69057;-73
2021/06/28 00:23:02;;;;;;;4.53;3.90;;;;;;;;;;409101;24;66520;-76
2021/06/28 00:23:14;;;;;;;5.35;4.10;;;;;;;;;;409097;24;70119;-70
2021/06/28 00:23:26;;;;;;;5.28;3.90;;;;;;;;;;408868;23;70409;-72
2021/06/28 00:23:39;;;;;;;4.93;3.85;;;;;;;;;;411495;23;45739;-76
2021/06/28 00:23:51;;;;;;;4.32;3.50;;;;;;;;;;411093;23;67903;-73
2021/06/28 00:24:04;;;;;;;4.35;3.38;;;;;;;;;;411856;23;47275;-70
2021/06/28 00:24:17;;;;;;;4.93;3.67;;;;;;;;;;411039;23;70257;-77
2021/06/28 00:24:29;;;;;;;4.97;3.72;;;;;;;;;;412100;23;67907;-70
2021/06/28 00:24:41;;;;;;;5.07;3.70;;;;;;;;;;413979;23;45937;-72
2021/06/28 00:24:54;;;;;;;4.60;3.67;;;;;;;;;;414035;23;46013;-73
2021/06/28 00:25:09;;;;;;;5.30;3.90;;;;;;;;;;412592;23;69060;-70
2021/06/28 00:25:21;;;;;;;5.20;3.78;;;;;;;;;;411158;23;116130;-76
2021/06/28 00:25:34;;;;;;;4.45;3.45;;;;;;;;;;412959;23;70090;-69
2021/06/28 00:25:47;;;;;;;4.13;3.58;;;;;;;;;;413080;23;69892;-71
2021/06/28 00:26:00;;;;;;;4.63;3.67;;;;;;;;;;412973;23;67996;-71
2021/06/28 00:26:12;;;;;;;4.63;3.47;;;;;;;;;;413918;23;44937;-70
2021/06/28 00:26:24;;;;;;;4.60;3.47;;;;;;;;;;413771;23;46054;-71
2021/06/28 00:26:38;;;;;;;4.05;3.35;;;;;;;;;;412885;23;69905;-77
2021/06/28 00:26:50;;;;;;;4.18;3.55;;;;;;;;;;412963;23;69997;-70
2021/06/28 00:27:02;;;;;;;4.90;3.70;;;;;;;;;;413772;23;46222;-70
2021/06/28 00:27:14;;;;;;;4.90;3.67;;;;;;;;;;412875;23;68980;-75
2021/06/28 00:27:27;;;;;;;5.70;3.50;;;;;;;;;;414285;23;45679;-75
2021/06/28 00:27:40;;;;;;;6.55;3.60;;;;;;;;;;413737;23;47148;-77
2021/06/28 00:28:11;;;;;;;5.40;3.50;;;;;;;;;;410300;23;137349;-69
2021/06/28 00:28:23;;;;;;;5.25;3.47;;;;;;;;;;413418;23;68996;-71
2021/06/28 00:28:36;;;;;;;5.07;3.50;;;;;;;;;;413328;23;68954;-74
2021/06/28 00:28:48;;;;;;;5.25;3.50;;;;;;;;;;414077;23;45676;-69
2021/06/28 00:29:00;;;;;;;4.50;3.35;;;;;;;;;;414057;23;45388;-74
2021/06/28 00:29:13;;;;;;;5.10;3.40;;;;;;;;;;413123;23;69127;-72
2021/06/28 00:29:25;;;;;;;4.15;3.40;;;;;;;;;;414255;23;46104;-70
2021/06/28 00:29:38;;;;;;;3.85;3.40;;;;;;;;;;413370;23;68975;-71
2021/06/28 00:29:50;;;;;;;3.60;3.28;;;;;;;;;;414204;23;45622;-70
2021/06/28 00:30:07;;;;;;;3.67;3.30;;;;;;;;;;413217;23;68551;-73
2021/06/28 00:30:20;;;;;;;4.90;3.40;;;;;;;;;;410328;23;137831;-70
2021/06/28 00:30:36;;;;;;;6.38;3.38;;;;;;;;;;412303;23;91905;-69
2021/06/28 00:30:49;;;;;;;5.93;3.40;;;;;;;;;;410296;23;137896;-73
2021/06/28 00:31:01;;;;;;;4.38;3.50;;;;;;;;;;415041;23;67860;-69
2021/06/28 00:31:14;;;;;;;4.20;3.30;;;;;;;;;;415943;23;45280;-70
2021/06/28 00:31:26;;;;;;;3.47;3.13;;;;;;;;;;415885;23;47110;-76
2021/06/28 00:31:39;;;;;;;3.58;2.90;;;;;;;;;;414870;23;67838;-70
2021/06/28 00:31:55;;;;;;;3.40;2.75;;;;;;;;;;414918;23;69593;-73
2021/06/28 00:32:10;;;;;;;2.92;2.63;;;;;;;;;;412026;23;136812;-71
2021/06/28 00:32:22;;;;;;;3.50;2.83;;;;;;;;;;415684;23;46647;-70
2021/06/28 00:32:35;;;;;;;3.28;2.80;;;;;;;;;;415685;23;45678;-72
2021/06/28 00:32:47;;;;;;;3.88;3.00;;;;;;;;;;413024;23;69520;-70
2021/06/28 00:33:00;;;;;;;4.40;3.10;;;;;;;;;;412978;23;68910;-70
2021/06/28 00:33:14;;;;;;;4.40;2.95;;;;;;;;;;413998;23;46025;-70
2021/06/28 00:33:26;;;;;;;4.28;2.70;;;;;;;;;;412046;23;92196;-70
2021/06/28 00:33:38;;;;;;;4.50;2.83;;;;;;;;;;412969;23;70208;-73
2021/06/28 00:33:51;;;;;;;5.65;2.80;;;;;;;;;;413700;23;46200;-70
2021/06/28 00:34:03;;;;;;;5.28;2.80;;;;;;;;;;413989;23;47371;-72
2021/06/28 00:34:15;;;;;;;5.15;2.72;;;;;;;;;;412886;23;68837;-69
2021/06/28 00:34:29;;;;;;;4.60;2.83;;;;;;;;;;414030;23;45389;-72
2021/06/28 00:34:41;;;;;;;3.55;2.80;;;;;;;;;;413048;23;69994;-69
2021/06/28 00:34:53;;;;;;;3.13;2.75;;;;;;;;;;412898;23;70078;-70
2021/06/28 00:35:07;;;;;;;2.97;2.63;;;;;;;;;;412084;23;43629;-73
2021/06/28 00:35:21;;;;;;;3.70;2.60;;;;;;;;;;410024;23;93026;-70
2021/06/28 00:35:34;;;;;;;3.75;2.70;;;;;;;;;;411001;23;70485;-70
2021/06/28 00:35:47;;;;;;;3.30;2.53;;;;;;;;;;409706;23;92997;-69
2021/06/28 00:36:00;;;;;;;4.70;2.70;;;;;;;;;;410971;23;68627;-70
2021/06/28 00:36:12;;;;;;;4.68;3.00;;;;;;;;;;411214;23;69993;-70
2021/06/28 00:36:24;;;;;;;4.22;3.03;;;;;;;;;;414004;23;45985;-70
2021/06/28 00:36:37;;;;;;;4.50;2.97;;;;;;;;;;412979;23;69086;-71
2021/06/28 00:36:49;;;;;;;3.92;2.83;;;;;;;;;;413890;23;47640;-70
2021/06/28 00:37:03;;;;;;;4.50;2.88;;;;;;;;;;412067;23;46635;-72
2021/06/28 00:37:15;;;;;;;4.18;2.95;;;;;;;;;;411985;23;91989;-72
2021/06/28 00:37:28;;;;;;;4.00;2.90;;;;;;;;;;412927;23;70089;-69
2021/06/28 00:37:41;;;;;;;3.67;2.85;;;;;;;;;;413841;23;47201;-75
2021/06/28 00:37:53;;;;;;;3.38;2.72;;;;;;;;;;413059;23;69660;-70
2021/06/28 00:38:06;;;;;;;3.05;2.53;;;;;;;;;;413070;23;68359;-73
2021/06/28 00:38:18;;;;;;;3.17;2.60;;;;;;;;;;413984;23;46088;-69
2021/06/28 00:38:30;;;;;;;4.07;2.75;;;;;;;;;;412814;23;70100;-72
2021/06/28 00:38:42;;;;;;;4.38;2.70;;;;;;;;;;413705;23;47202;-71
2021/06/28 00:38:55;;;;;;;3.88;2.63;;;;;;;;;;414036;23;46029;-70
2021/06/28 00:39:07;;;;;;;4.00;2.65;;;;;;;;;;413445;23;68514;-70
2021/06/28 00:39:19;;;;;;;4.05;2.80;;;;;;;;;;414355;23;47088;-70
2021/06/28 00:39:32;;;;;;;3.75;2.67;;;;;;;;;;414055;23;47153;-73
2021/06/28 00:39:44;;;;;;;3.40;2.60;;;;;;;;;;413241;23;67753;-70
2021/06/28 00:39:56;;;;;;;3.25;2.40;;;;;;;;;;413932;23;45961;-71
2021/06/28 00:40:11;;;;;;;3.75;2.60;;;;;;;;;;412913;23;70068;-69
2021/06/28 00:40:23;;;;;;;3.67;2.60;;;;;;;;;;411941;23;92617;-70
2021/06/28 00:40:36;;;;;;;3.30;2.80;;;;;;;;;;413778;23;47489;-75
2021/06/28 00:40:48;;;;;;;3.88;2.90;;;;;;;;;;413015;23;70187;-70
2021/06/28 00:41:01;;;;;;;4.15;2.90;;;;;;;;;;412931;23;70096;-70
2021/06/28 00:41:13;;;;;;;3.75;2.80;;;;;;;;;;413983;23;47664;-70
2021/06/28 00:41:25;;;;;;;2.98;2.62;;;;;;;;;;413923;23;45338;-69
2021/06/28 00:41:38;;;;;;;3.00;2.78;;;;;;;;;;413936;23;47249;-70
2021/06/28 00:41:50;;;;;;;3.00;2.70;;;;;;;;;;414237;23;46263;-70
2021/06/28 00:42:02;;;;;;;3.15;2.70;;;;;;;;;;413167;23;70151;-70
2021/06/28 00:42:15;;;;;;;3.33;2.55;;;;;;;;;;413985;23;47187;-71
2021/06/28 00:42:27;;;;;;;3.03;2.30;;;;;;;;;;414175;23;47616;-69
2021/06/28 00:42:40;;;;;;;2.22;2.03;;;;;;;;;;413193;23;69605;-70
2021/06/28 00:42:52;;;;;;;2.47;2.10;;;;;;;;;;413977;23;43558;-72
2021/06/28 00:43:05;;;;;;;3.58;1.98;;;;;;;;;;412963;23;68438;-69
2021/06/28 00:43:17;;;;;;;4.00;1.85;;;;;;;;;;412965;23;70804;-71
2021/06/28 00:43:31;;;;;;;3.22;1.90;;;;;;;;;;411966;23;91869;-70
2021/06/28 00:43:43;;;;;;;3.20;2.00;;;;;;;;;;413942;23;46104;-71
2021/06/28 00:43:55;;;;;;;3.60;2.00;;;;;;;;;;413990;23;44817;-70
2021/06/28 00:44:08;;;;;;;3.60;1.80;;;;;;;;;;413855;23;45859;-70
2021/06/28 00:44:20;;;;;;;2.88;1.70;;;;;;;;;;413981;23;46741;-70
2021/06/28 00:44:33;;;;;;;2.78;1.73;;;;;;;;;;414031;23;45931;-69
2021/06/28 00:44:45;;;;;;;3.25;1.80;;;;;;;;;;413076;23;67871;-70
2021/06/28 00:44:58;;;;;;;3.17;1.90;;;;;;;;;;412576;23;68416;-69
2021/06/28 00:45:14;;;;;;;2.75;1.90;;;;;;;;;;412029;23;44943;-70
2021/06/28 00:45:27;;;;;;;2.28;1.80;;;;;;;;;;406331;24;137981;-76
2021/06/28 00:45:40;;;;;;;2.15;1.90;;;;;;;;;;409203;23;68533;-73
2021/06/28 00:45:53;;;;;;;2.63;1.85;;;;;;;;;;410017;23;93187;-70
2021/06/28 00:46:05;;;;;;;2.35;1.73;;;;;;;;;;410991;23;68443;-76
2021/06/28 00:46:18;;;;;;;1.95;1.60;;;;;;;;;;411815;23;46544;-76
2021/06/28 00:46:30;;;;;;;2.22;1.60;;;;;;;;;;411162;23;67818;-69
2021/06/28 00:46:43;;;;;;;2.50;1.85;;;;;;;;;;411648;23;47517;-70
2021/06/28 00:46:55;;;;;;;2.35;1.85;;;;;;;;;;411428;23;67760;-72
2021/06/28 00:47:08;;;;;;;2.38;1.80;;;;;;;;;;413998;23;47304;-75
2021/06/28 00:47:20;;;;;;;3.47;1.70;;;;;;;;;;413298;23;67851;-76
2021/06/28 00:47:33;;;;;;;3.92;1.83;;;;;;;;;;413244;23;68509;-73
2021/06/28 00:47:46;;;;;;;2.38;1.70;;;;;;;;;;414237;23;45697;-72
2021/06/28 00:47:59;;;;;;;2.35;1.70;;;;;;;;;;413298;23;69030;-76
2021/06/28 00:48:13;;;;;;;2.30;1.63;;;;;;;;;;412302;23;93014;-76
2021/06/28 00:48:25;;;;;;;2.42;1.83;;;;;;;;;;413347;23;70064;-76
2021/06/28 00:48:37;;;;;;;2.72;1.82;;;;;;;;;;414041;23;46582;-70
2021/06/28 00:48:50;;;;;;;2.70;2.00;;;;;;;;;;414180;23;45693;-69
2021/06/28 00:49:02;;;;;;;2.25;1.90;;;;;;;;;;414154;23;44853;-71
2021/06/28 00:49:14;;;;;;;2.58;1.83;;;;;;;;;;413304;23;68995;-73
2021/06/28 00:49:27;;;;;;;2.47;1.65;;;;;;;;;;414081;23;45438;-75
2021/06/28 00:49:42;;;;;;;3.16;1.76;;;;;;;;;;410258;23;138887;-74
2021/06/28 00:49:54;;;;;;;3.30;1.85;;;;;;;;;;414094;23;45485;-70
2021/06/28 00:50:07;;;;;;;2.83;1.83;;;;;;;;;;416099;23;45770;-71
2021/06/28 00:50:20;;;;;;;2.75;1.70;;;;;;;;;;414915;23;70155;-73
2021/06/28 00:50:34;;;;;;;2.08;1.50;;;;;;;;;;414904;23;68421;-70
2021/06/28 00:50:48;;;;;;;1.70;1.50;;;;;;;;;;412074;23;91845;-73
2021/06/28 00:51:00;;;;;;;1.60;1.50;;;;;;;;;;412062;23;91900;-75
2021/06/28 00:51:13;;;;;;;1.60;1.50;;;;;;;;;;413872;23;46030;-71
2021/06/28 00:51:25;;;;;;;2.00;1.60;;;;;;;;;;413711;23;46568;-77
2021/06/28 00:51:40;;;;;;;1.80;1.58;;;;;;;;;;411292;23;115486;-70
2021/06/28 00:51:56;;;;;;;1.60;1.50;;;;;;;;;;413839;23;47596;-72
2021/06/28 00:52:08;;;;;;;1.92;1.50;;;;;;;;;;410054;23;139195;-70
2021/06/28 00:52:20;;;;;;;2.22;1.55;;;;;;;;;;413768;23;45696;-73
2021/06/28 00:52:33;;;;;;;1.75;1.50;;;;;;;;;;412857;23;70297;-73
2021/06/28 00:52:46;;;;;;;2.10;1.55;;;;;;;;;;414464;23;45924;-75
2021/06/28 00:53:02;;;;;;;1.73;1.30;;;;;;;;;;413895;23;93078;-74
2021/06/28 00:53:15;;;;;;;1.42;1.20;;;;;;;;;;411140;23;112647;-72
2021/06/28 00:53:27;;;;;;;1.92;1.25;;;;;;;;;;411819;23;92647;-74
2021/06/28 00:53:40;;;;;;;1.98;1.25;;;;;;;;;;413883;23;47217;-72
2021/06/28 00:53:52;;;;;;;1.98;1.30;;;;;;;;;;413789;23;45917;-75
2021/06/28 00:54:04;;;;;;;2.70;1.40;;;;;;;;;;412964;23;70223;-70
2021/06/28 00:54:17;;;;;;;2.70;1.35;;;;;;;;;;414047;23;46249;-73
2021/06/28 00:54:29;;;;;;;3.03;1.40;;;;;;;;;;412905;23;67768;-74
2021/06/28 00:54:42;;;;;;;2.60;1.40;;;;;;;;;;413902;23;46031;-72
2021/06/28 00:54:54;;;;;;;2.20;1.50;;;;;;;;;;413099;23;68581;-75
2021/06/28 00:55:08;;;;;;;2.15;1.50;;;;;;;;;;413063;23;69733;-75
2021/06/28 00:55:21;;;;;;;2.20;1.40;;;;;;;;;;412057;23;91977;-75
2021/06/28 00:55:33;;;;;;;2.10;1.48;;;;;;;;;;414192;23;47174;-76
2021/06/28 00:55:47;;;;;;;2.70;1.58;;;;;;;;;;413249;23;69788;-71
2021/06/28 00:56:12;;;;;;;2.00;1.50;;;;;;;;;;412978;23;68975;-72
2021/06/28 00:56:24;;;;;;;1.60;1.50;;;;;;;;;;409073;23;161043;-70
2021/06/28 00:56:36;;;;;;;1.95;1.38;;;;;;;;;;413122;23;69605;-75
2021/06/28 00:56:49;;;;;;;2.30;1.33;;;;;;;;;;414061;23;44875;-74
2021/06/28 00:57:02;;;;;;;2.20;1.30;;;;;;;;;;413795;23;46803;-73
2021/06/28 00:57:14;;;;;;;1.65;1.38;;;;;;;;;;412045;23;92985;-74
2021/06/28 00:57:27;;;;;;;2.00;1.40;;;;;;;;;;414150;23;45564;-77
2021/06/28 00:57:39;;;;;;;2.67;1.48;;;;;;;;;;414213;23;45507;-72
2021/06/28 00:57:51;;;;;;;2.70;1.42;;;;;;;;;;412980;23;69933;-70
2021/06/28 00:58:04;;;;;;;2.72;1.42;;;;;;;;;;414033;23;47279;-71
2021/06/28 00:58:16;;;;;;;2.10;1.45;;;;;;;;;;413287;23;69917;-75
2021/06/28 00:58:29;;;;;;;1.70;1.30;;;;;;;;;;414246;23;46634;-73
2021/06/28 00:58:42;;;;;;;1.38;1.27;;;;;;;;;;413167;23;70181;-71
2021/06/28 00:58:55;;;;;;;1.85;1.40;;;;;;;;;;413171;23;68468;-74
2021/06/28 00:59:07;;;;;;;2.20;1.50;;;;;;;;;;412900;23;69613;-68
2021/06/28 00:59:20;;;;;;;1.90;1.50;;;;;;;;;;412983;23;67834;-72
2021/06/28 00:59:32;;;;;;;1.85;1.50;;;;;;;;;;413042;23;69659;-74
2021/06/28 00:59:45;;;;;;;1.42;1.33;;;;;;;;;;414033;23;46560;-73
2021/06/28 00:59:57;;;;;;;1.42;1.33;;;;;;;;;;413805;23;46138;-70
2021/06/28 01:00:10;;;;;;;1.40;1.30;;;;;;;;;;413004;23;69028;-72
2021/06/28 01:00:22;;;;;;;2.30;1.40;;;;;;;;;;413785;23;46026;-75
2021/06/28 01:00:35;;;;;;;2.45;1.52;;;;;;;;;;412921;23;70015;-74
2021/06/28 01:00:47;;;;;;;3.55;1.60;;;;;;;;;;412727;23;69958;-71
2021/06/28 01:01:00;;;;;;;3.58;1.55;;;;;;;;;;412719;23;68853;-75
2021/06/28 01:01:12;;;;;;;3.63;1.70;;;;;;;;;;414117;23;47368;-74
2021/06/28 01:01:25;;;;;;;2.58;1.60;;;;;;;;;;413250;23;69050;-75
2021/06/28 01:01:37;;;;;;;2.95;1.60;;;;;;;;;;414244;23;45982;-72
2021/06/28 01:01:50;;;;;;;2.50;1.50;;;;;;;;;;413304;23;67733;-69
2021/06/28 01:02:04;;;;;;;1.70;1.40;;;;;;;;;;414213;23;45946;-74
2021/06/28 01:02:16;;;;;;;2.10;1.40;;;;;;;;;;412336;23;91447;-73
2021/06/28 01:02:28;;;;;;;2.42;1.40;;;;;;;;;;414183;23;46613;-73
2021/06/28 01:02:41;;;;;;;2.30;1.45;;;;;;;;;;414161;23;47009;-75
2021/06/28 01:02:53;;;;;;;1.80;1.40;;;;;;;;;;413203;23;70277;-72
2021/06/28 01:03:06;;;;;;;1.55;1.40;;;;;;;;;;413117;23;68961;-77
2021/06/28 01:03:18;;;;;;;2.30;1.40;;;;;;;;;;412884;23;70073;-73
2021/06/28 01:03:31;;;;;;;2.38;1.45;;;;;;;;;;413879;23;47161;-72
2021/06/28 01:03:43;;;;;;;2.00;1.40;;;;;;;;;;413812;23;46551;-70
2021/06/28 01:03:55;;;;;;;2.50;1.60;;;;;;;;;;412928;23;68930;-72
2021/06/28 01:04:08;;;;;;;2.42;1.45;;;;;;;;;;413829;23;46541;-70
2021/06/28 01:04:20;;;;;;;1.50;1.27;;;;;;;;;;412169;23;45158;-75
2021/06/28 01:04:32;;;;;;;1.40;1.30;;;;;;;;;;410869;23;68953;-71
2021/06/28 01:04:44;;;;;;;1.70;1.40;;;;;;;;;;411773;23;45026;-71
2021/06/28 01:04:57;;;;;;;2.10;1.60;;;;;;;;;;411751;23;46834;-70
2021/06/28 01:05:11;;;;;;;2.15;1.52;;;;;;;;;;412427;23;68996;-74
2021/06/28 01:05:24;;;;;;;1.90;1.50;;;;;;;;;;412129;23;91440;-69
2021/06/28 01:05:39;;;;;;;1.63;1.40;;;;;;;;;;411957;23;92939;-71
2021/06/28 01:05:52;;;;;;;1.63;1.30;;;;;;;;;;411187;23;115813;-76
2021/06/28 01:06:05;;;;;;;1.73;1.33;;;;;;;;;;414009;23;45536;-72
2021/06/28 01:06:18;;;;;;;2.38;1.40;;;;;;;;;;412042;23;93134;-71
2021/06/28 01:06:30;;;;;;;2.80;1.50;;;;;;;;;;413804;23;46855;-73
2021/06/28 01:06:42;;;;;;;3.25;1.67;;;;;;;;;;414006;23;46138;-74
2021/06/28 01:06:55;;;;;;;2.78;1.70;;;;;;;;;;412974;23;68917;-75
2021/06/28 01:07:07;;;;;;;2.90;1.55;;;;;;;;;;413870;23;45307;-70
2021/06/28 01:07:19;;;;;;;3.03;1.40;;;;;;;;;;412997;23;69627;-73
2021/06/28 01:07:32;;;;;;;2.30;1.52;;;;;;;;;;413901;23;46177;-70
2021/06/28 01:07:44;;;;;;;3.78;1.63;;;;;;;;;;414062;23;46102;-71
2021/06/28 01:07:56;;;;;;;3.03;1.58;;;;;;;;;;412936;23;68934;-75
2021/06/28 01:08:09;;;;;;;3.15;1.60;;;;;;;;;;413987;23;46431;-76
2021/06/28 01:08:21;;;;;;;2.38;1.70;;;;;;;;;;412842;23;70050;-70
2021/06/28 01:08:34;;;;;;;2.22;1.60;;;;;;;;;;413888;23;44834;-72
2021/06/28 01:08:46;;;;;;;2.08;1.55;;;;;;;;;;414324;23;45585;-72
2021/06/28 01:08:59;;;;;;;2.45;1.60;;;;;;;;;;412952;23;69600;-75
2021/06/28 01:09:11;;;;;;;2.67;1.67;;;;;;;;;;413237;23;68600;-75
2021/06/28 01:09:24;;;;;;;2.75;1.67;;;;;;;;;;414205;23;44841;-72
2021/06/28 01:09:36;;;;;;;2.03;1.55;;;;;;;;;;414992;23;66804;-75
2021/06/28 01:09:49;;;;;;;1.60;1.50;;;;;;;;;;412850;23;70032;-74
2021/06/28 01:10:02;;;;;;;2.90;1.58;;;;;;;;;;413906;23;47244;-77
2021/06/28 01:10:15;;;;;;;3.42;1.60;;;;;;;;;;412836;23;68986;-71
2021/06/28 01:10:27;;;;;;;3.15;1.58;;;;;;;;;;412907;23;68222;-74
2021/06/28 01:10:40;;;;;;;1.92;1.55;;;;;;;;;;412988;23;68610;-69
2021/06/28 01:10:52;;;;;;;2.17;1.58;;;;;;;;;;413821;23;46044;-71
2021/06/28 01:11:09;;;;;;;2.53;1.60;;;;;;;;;;410088;23;139031;-74
2021/06/28 01:11:21;;;;;;;1.90;1.38;;;;;;;;;;413077;23;69592;-76
2021/06/28 01:11:33;;;;;;;1.77;1.38;;;;;;;;;;413922;23;45691;-71
2021/06/28 01:11:46;;;;;;;2.53;1.70;;;;;;;;;;412428;23;46575;-73
2021/06/28 01:11:58;;;;;;;2.75;1.80;;;;;;;;;;412906;23;68918;-76
2021/06/28 01:12:10;;;;;;;2.45;1.73;;;;;;;;;;413922;23;45418;-74
2021/06/28 01:12:23;;;;;;;2.20;1.70;;;;;;;;;;414296;23;45559;-76
2021/06/28 01:12:35;;;;;;;3.00;1.70;;;;;;;;;;414969;23;67871;-77
2021/06/28 01:12:49;;;;;;;3.20;1.60;;;;;;;;;;415266;23;45026;-70
2021/06/28 01:13:01;;;;;;;2.78;1.70;;;;;;;;;;413818;23;91336;-76
2021/06/28 01:13:14;;;;;;;1.78;1.60;;;;;;;;;;415840;23;46095;-70
2021/06/28 01:13:26;;;;;;;1.67;1.58;;;;;;;;;;415934;23;47274;-75
2021/06/28 01:13:40;;;;;;;1.75;1.60;;;;;;;;;;416028;23;45849;-73
2021/06/28 01:13:53;;;;;;;2.47;1.70;;;;;;;;;;413126;23;114246;-75
2021/06/28 01:14:05;;;;;;;3.35;1.73;;;;;;;;;;415761;23;45993;-70
2021/06/28 01:14:17;;;;;;;3.50;1.80;;;;;;;;;;415793;23;45919;-74
2021/06/28 01:14:30;;;;;;;3.08;1.70;;;;;;;;;;414756;23;68985;-73
2021/06/28 01:14:43;;;;;;;2.60;1.73;;;;;;;;;;412987;23;70054;-73
2021/06/28 01:14:56;;;;;;;2.25;1.73;;;;;;;;;;412884;23;68927;-70
2021/06/28 01:15:08;;;;;;;2.28;1.90;;;;;;;;;;413096;23;68849;-73
2021/06/28 01:15:21;;;;;;;2.00;1.75;;;;;;;;;;413937;23;47178;-70
2021/06/28 01:15:34;;;;;;;1.65;1.55;;;;;;;;;;412936;23;69928;-74
2021/06/28 01:15:47;;;;;;;2.10;1.50;;;;;;;;;;411942;23;93008;-73
2021/06/28 01:16:01;;;;;;;2.28;1.52;;;;;;;;;;413659;23;46101;-71
2021/06/28 01:16:13;;;;;;;2.03;1.60;;;;;;;;;;411946;23;93143;-71
2021/06/28 01:16:26;;;;;;;2.80;1.73;;;;;;;;;;412904;23;68504;-72
2021/06/28 01:16:38;;;;;;;3.38;1.80;;;;;;;;;;413917;23;47254;-75
2021/06/28 01:16:51;;;;;;;4.30;1.70;;;;;;;;;;414162;23;47186;-73
2021/06/28 01:17:03;;;;;;;3.70;1.67;;;;;;;;;;413129;23;68852;-73
2021/06/28 01:17:16;;;;;;;3.42;1.70;;;;;;;;;;413145;23;69294;-71
2021/06/28 01:17:28;;;;;;;2.22;1.60;;;;;;;;;;414314;23;46144;-71
2021/06/28 01:17:41;;;;;;;3.22;1.70;;;;;;;;;;412783;23;70350;-70
2021/06/28 01:17:54;;;;;;;3.03;1.77;;;;;;;;;;412894;23;68945;-70
2021/06/28 01:18:06;;;;;;;2.47;1.90;;;;;;;;;;414030;23;45067;-70